createdAt,value
2017-10-31T00:00:33.622Z,2.60
2017-10-31T00:02:59.963Z,2.70
2017-10-31T00:05:26.336Z,2.70
2017-10-31T00:07:52.679Z,2.70
2017-10-31T00:10:19.038Z,2.60
2017-10-31T00:12:46.886Z,2.40
2017-10-31T00:15:13.987Z,2.30
2017-10-31T00:17:40.306Z,2.30
2017-10-31T00:20:07.390Z,2.10
2017-10-31T00:22:34.746Z,2.10
2017-10-31T00:25:01.101Z,2.00
2017-10-31T00:27:28.208Z,1.80
2017-10-31T00:29:56.733Z,1.80
2017-10-31T00:32:23.835Z,1.70
2017-10-31T00:34:50.198Z,1.70
2017-10-31T00:37:16.515Z,1.70
2017-10-31T00:39:42.849Z,1.70
2017-10-31T00:42:09.195Z,1.70
2017-10-31T00:44:36.280Z,1.70
2017-10-31T00:47:02.620Z,1.70
2017-10-31T00:49:28.950Z,1.70
2017-10-31T00:51:55.290Z,1.70
2017-10-31T00:54:21.618Z,1.60
2017-10-31T00:56:47.963Z,1.60
2017-10-31T00:59:14.979Z,1.70
2017-10-31T01:01:41.323Z,1.70
2017-10-31T01:04:07.679Z,1.60
2017-10-31T01:06:34.080Z,1.50
2017-10-31T01:09:00.411Z,1.60
2017-10-31T01:11:26.827Z,1.60
2017-10-31T01:13:53.162Z,1.70
2017-10-31T01:16:19.486Z,1.70
2017-10-31T01:18:45.827Z,1.70
2017-10-31T01:21:12.157Z,1.70
2017-10-31T01:23:38.495Z,1.70
2017-10-31T01:26:05.833Z,1.70
2017-10-31T01:28:32.167Z,1.70
2017-10-31T01:30:58.505Z,1.70
2017-10-31T01:33:24.859Z,1.60
2017-10-31T01:35:51.214Z,1.60
2017-10-31T01:38:17.546Z,1.60
2017-10-31T01:40:51.260Z,1.60
2017-10-31T01:43:18.375Z,1.60
2017-10-31T01:45:44.748Z,1.60
2017-10-31T01:48:11.842Z,1.60
2017-10-31T01:50:38.182Z,1.60
2017-10-31T01:53:04.526Z,1.50
2017-10-31T01:55:30.886Z,1.50
2017-10-31T01:57:58.265Z,1.50
2017-10-31T02:00:24.687Z,1.50
2017-10-31T02:02:51.066Z,1.50
2017-10-31T02:05:17.414Z,1.50
2017-10-31T02:07:43.759Z,1.50
2017-10-31T02:10:10.858Z,1.60
2017-10-31T02:12:37.243Z,1.50
2017-10-31T02:15:05.334Z,1.40
2017-10-31T02:17:31.699Z,1.40
2017-10-31T02:19:58.056Z,1.40
2017-10-31T02:22:24.459Z,1.40
2017-10-31T02:24:50.818Z,1.40
2017-10-31T02:27:17.206Z,1.30
2017-10-31T02:29:43.554Z,1.40
2017-10-31T02:32:09.932Z,1.40
2017-10-31T02:34:37.042Z,1.30
2017-10-31T02:37:03.438Z,1.30
2017-10-31T02:39:29.814Z,1.30
2017-10-31T02:41:56.174Z,1.30
2017-10-31T02:44:23.300Z,1.30
2017-10-31T02:46:49.678Z,1.30
2017-10-31T02:49:16.039Z,1.30
2017-10-31T02:51:42.414Z,1.30
2017-10-31T02:54:09.515Z,1.20
2017-10-31T02:56:35.902Z,1.20
2017-10-31T02:59:03.276Z,1.20
2017-10-31T03:01:29.655Z,1.20
2017-10-31T03:03:56.031Z,1.30
2017-10-31T03:06:22.429Z,1.30
2017-10-31T03:08:48.794Z,1.20
2017-10-31T03:11:15.174Z,1.20
2017-10-31T03:13:41.567Z,1.20
2017-10-31T03:16:07.937Z,1.10
2017-10-31T03:18:34.323Z,1.10
2017-10-31T03:21:00.707Z,1.10
2017-10-31T03:23:27.071Z,1.10
2017-10-31T03:25:54.183Z,0.90
2017-10-31T03:28:20.578Z,0.90
2017-10-31T03:30:46.976Z,0.90
2017-10-31T03:33:13.383Z,0.90
2017-10-31T03:35:39.853Z,1.00
2017-10-31T03:38:06.258Z,0.90
2017-10-31T03:40:32.633Z,0.90
2017-10-31T03:42:59.349Z,0.90
2017-10-31T03:45:26.450Z,1.00
2017-10-31T03:47:52.806Z,0.90
2017-10-31T03:50:19.207Z,1.00
2017-10-31T03:52:45.577Z,1.00
2017-10-31T03:55:12.691Z,1.10
2017-10-31T03:57:39.080Z,1.00
2017-10-31T04:00:05.455Z,1.10
2017-10-31T04:02:31.850Z,1.10
2017-10-31T04:04:58.239Z,1.10
2017-10-31T04:07:25.439Z,1.10
2017-10-31T04:09:53.550Z,1.00
2017-10-31T04:12:19.941Z,1.00
2017-10-31T04:14:46.287Z,0.90
2017-10-31T04:17:12.649Z,0.90
2017-10-31T04:19:39.023Z,0.90
2017-10-31T04:22:05.397Z,1.00
2017-10-31T04:24:31.745Z,0.90
2017-10-31T04:26:58.141Z,0.90
2017-10-31T04:29:24.491Z,0.90
2017-10-31T04:31:50.860Z,0.90
2017-10-31T04:34:19.028Z,0.90
2017-10-31T04:36:46.134Z,0.80
2017-10-31T04:39:12.523Z,0.80
2017-10-31T04:41:38.876Z,0.80
2017-10-31T04:44:05.256Z,0.90
2017-10-31T04:46:31.609Z,0.80
2017-10-31T04:48:58.749Z,0.80
2017-10-31T04:51:25.874Z,0.80
2017-10-31T04:53:52.343Z,0.80
2017-10-31T04:56:19.462Z,0.90
2017-10-31T04:58:45.852Z,0.80
2017-10-31T05:01:12.946Z,0.90
2017-10-31T05:03:39.283Z,0.90
2017-10-31T05:06:06.366Z,0.80
2017-10-31T05:08:32.725Z,0.80
2017-10-31T05:10:59.059Z,0.90
2017-10-31T05:13:25.404Z,0.80
2017-10-31T05:15:51.734Z,0.80
2017-10-31T05:18:18.099Z,0.70
2017-10-31T05:20:46.190Z,0.60
2017-10-31T05:23:12.522Z,0.50
2017-10-31T05:25:38.851Z,0.60
2017-10-31T05:28:05.218Z,0.60
2017-10-31T05:30:31.551Z,0.60
2017-10-31T05:32:57.907Z,0.60
2017-10-31T05:35:25.003Z,0.60
2017-10-31T05:37:51.310Z,0.50
2017-10-31T05:40:17.624Z,0.50
2017-10-31T05:42:44.755Z,0.40
2017-10-31T05:45:11.079Z,0.40
2017-10-31T05:47:37.410Z,0.40
2017-10-31T05:50:03.771Z,0.40
2017-10-31T05:52:30.839Z,0.30
2017-10-31T05:54:57.184Z,0.30
2017-10-31T05:57:23.532Z,0.40
2017-10-31T05:59:49.874Z,0.40
2017-10-31T06:02:16.198Z,0.50
2017-10-31T06:04:42.556Z,0.50
2017-10-31T06:07:09.656Z,0.60
2017-10-31T06:09:35.998Z,0.60
2017-10-31T06:12:02.338Z,0.70
2017-10-31T06:14:28.686Z,0.80
2017-10-31T06:16:55.010Z,0.80
2017-10-31T06:19:21.351Z,0.90
2017-10-31T06:21:54.020Z,0.90
2017-10-31T06:24:26.422Z,0.90
2017-10-31T06:29:58.123Z,0.80
2017-10-31T06:32:24.442Z,0.90
2017-10-31T06:34:50.764Z,0.90
2017-10-31T06:37:17.127Z,0.90
2017-10-31T06:39:43.482Z,1.00
2017-10-31T06:42:09.806Z,1.10
2017-10-31T06:44:36.146Z,1.10
2017-10-31T06:47:02.479Z,1.20
2017-10-31T06:49:28.806Z,1.20
2017-10-31T06:51:55.158Z,1.30
2017-10-31T06:54:22.247Z,1.50
2017-10-31T06:56:48.599Z,1.40
2017-10-31T06:59:14.990Z,1.50
2017-10-31T07:01:41.319Z,1.60
2017-10-31T07:04:07.647Z,1.70
2017-10-31T07:06:34.007Z,1.80
2017-10-31T07:09:00.367Z,2.00
2017-10-31T07:11:26.691Z,2.10
2017-10-31T07:13:53.022Z,2.20
2017-10-31T07:16:19.351Z,2.40
2017-10-31T07:18:45.691Z,2.50
2017-10-31T07:21:12.014Z,2.60
2017-10-31T07:23:38.354Z,2.70
2017-10-31T07:26:04.693Z,2.80
2017-10-31T07:28:31.793Z,3.10
2017-10-31T07:30:58.116Z,3.00
2017-10-31T07:33:24.495Z,3.10
2017-10-31T07:35:50.819Z,3.30
2017-10-31T07:38:17.167Z,3.50
2017-10-31T07:40:44.234Z,3.80
2017-10-31T07:43:10.574Z,3.80
2017-10-31T07:45:36.925Z,4.00
2017-10-31T07:48:03.304Z,4.10
2017-10-31T07:50:30.374Z,4.20
2017-10-31T07:52:56.710Z,4.20
2017-10-31T07:55:23.031Z,4.30
2017-10-31T07:57:49.386Z,4.40
2017-10-31T08:00:15.726Z,4.60
2017-10-31T08:02:42.046Z,4.60
2017-10-31T08:05:08.389Z,4.70
2017-10-31T08:07:34.730Z,4.90
2017-10-31T08:10:01.087Z,5.10
2017-10-31T08:12:27.493Z,5.30
2017-10-31T08:14:54.822Z,5.40
2017-10-31T08:17:21.147Z,5.60
2017-10-31T08:19:47.521Z,5.80
2017-10-31T08:22:13.855Z,6.00
2017-10-31T08:24:40.255Z,6.10
2017-10-31T08:27:06.580Z,6.30
2017-10-31T08:29:32.919Z,6.40
2017-10-31T08:31:59.243Z,6.50
2017-10-31T08:34:25.583Z,6.70
2017-10-31T08:36:51.971Z,6.90
2017-10-31T08:39:18.305Z,6.80
2017-10-31T08:41:44.687Z,7.10
2017-10-31T08:44:11.050Z,7.40
2017-10-31T08:46:38.154Z,7.40
2017-10-31T08:49:04.489Z,7.30
2017-10-31T08:51:30.850Z,7.60
2017-10-31T08:53:57.219Z,7.80
2017-10-31T08:56:23.570Z,7.80
2017-10-31T08:58:50.986Z,7.90
2017-10-31T09:01:17.322Z,7.90
2017-10-31T09:03:43.655Z,8.10
2017-10-31T09:06:09.994Z,8.10
2017-10-31T09:08:36.336Z,8.10
2017-10-31T09:11:02.686Z,8.20
2017-10-31T09:13:29.030Z,8.50
2017-10-31T09:15:55.352Z,8.30
2017-10-31T09:18:21.698Z,8.30
2017-10-31T09:20:48.034Z,8.60
2017-10-31T09:23:14.383Z,8.70
2017-10-31T09:25:41.465Z,8.80
2017-10-31T09:28:07.810Z,8.80
2017-10-31T09:30:34.139Z,8.50
2017-10-31T09:33:00.478Z,8.40
2017-10-31T09:35:26.838Z,8.50
2017-10-31T09:37:53.162Z,8.80
2017-10-31T09:40:19.521Z,8.80
2017-10-31T09:42:45.847Z,8.90
2017-10-31T09:45:13.063Z,9.40
2017-10-31T09:47:39.394Z,9.40
2017-10-31T09:50:05.754Z,9.30
2017-10-31T09:52:32.820Z,9.40
2017-10-31T09:55:02.137Z,9.40
2017-10-31T09:57:28.879Z,9.60
2017-10-31T09:59:55.266Z,9.70
2017-10-31T10:02:22.334Z,9.80
2017-10-31T10:04:48.713Z,9.80
2017-10-31T10:07:15.430Z,9.90
2017-10-31T10:09:41.795Z,9.80
2017-10-31T10:12:08.126Z,9.90
2017-10-31T10:14:35.239Z,10.20
2017-10-31T10:17:01.591Z,10.20
2017-10-31T10:19:27.938Z,10.70
2017-10-31T10:21:54.322Z,10.60
2017-10-31T10:24:20.675Z,10.50
2017-10-31T10:26:47.010Z,10.60
2017-10-31T10:29:13.361Z,10.70
2017-10-31T10:31:39.751Z,10.80
2017-10-31T10:34:06.107Z,10.80
2017-10-31T10:36:32.463Z,10.90
2017-10-31T10:39:00.546Z,11.20
2017-10-31T10:41:27.626Z,11.20
2017-10-31T10:43:54.699Z,10.90
2017-10-31T10:46:21.047Z,10.90
2017-10-31T10:48:47.373Z,11.00
2017-10-31T10:51:13.714Z,10.70
2017-10-31T10:53:40.066Z,10.80
2017-10-31T10:56:06.402Z,10.90
2017-10-31T10:58:33.829Z,11.10
2017-10-31T11:01:00.237Z,11.20
2017-10-31T11:03:26.602Z,11.20
2017-10-31T11:05:53.723Z,11.00
2017-10-31T11:08:20.098Z,11.00
2017-10-31T11:10:46.455Z,11.10
2017-10-31T11:13:13.559Z,11.00
2017-10-31T11:15:39.937Z,11.00
2017-10-31T11:18:06.305Z,11.10
2017-10-31T11:20:32.691Z,11.10
2017-10-31T11:22:59.074Z,11.10
2017-10-31T11:25:26.194Z,10.60
2017-10-31T11:27:52.524Z,10.60
2017-10-31T11:30:18.861Z,10.60
2017-10-31T11:32:45.202Z,10.50
2017-10-31T11:35:11.580Z,10.50
2017-10-31T11:37:37.946Z,10.50
2017-10-31T11:40:04.311Z,10.40
2017-10-31T11:42:30.671Z,10.50
2017-10-31T11:44:56.998Z,10.50
2017-10-31T11:47:23.363Z,10.40
2017-10-31T11:49:49.695Z,10.40
2017-10-31T11:52:16.034Z,10.70
2017-10-31T11:54:42.393Z,10.50
2017-10-31T11:57:08.761Z,10.50
2017-10-31T11:59:35.112Z,10.90
2017-10-31T12:02:01.459Z,11.20
2017-10-31T12:04:27.814Z,11.40
2017-10-31T12:06:54.178Z,11.90
2017-10-31T12:09:20.550Z,12.10
2017-10-31T12:11:46.896Z,12.20
2017-10-31T12:14:13.238Z,12.10
2017-10-31T12:16:39.603Z,11.80
2017-10-31T12:19:05.923Z,11.80
2017-10-31T12:21:32.276Z,11.90
2017-10-31T12:23:58.654Z,11.80
2017-10-31T12:26:25.002Z,11.90
2017-10-31T12:28:52.118Z,11.40
2017-10-31T12:31:18.474Z,11.40
2017-10-31T12:33:45.605Z,11.10
2017-10-31T12:36:11.930Z,11.10
2017-10-31T12:38:38.321Z,11.20
2017-10-31T12:41:04.691Z,11.70
2017-10-31T12:43:31.078Z,11.90
2017-10-31T12:45:57.412Z,12.50
2017-10-31T12:48:23.794Z,13.40
2017-10-31T12:50:50.114Z,14.00
2017-10-31T12:53:16.468Z,14.10
2017-10-31T12:55:43.174Z,14.00
2017-10-31T12:58:09.558Z,14.30
2017-10-31T13:00:36.662Z,14.70
2017-10-31T13:03:03.052Z,14.60
2017-10-31T13:05:29.417Z,14.60
2017-10-31T13:07:55.782Z,14.70
2017-10-31T13:10:22.179Z,15.50
2017-10-31T13:12:48.554Z,16.20
2017-10-31T13:15:15.760Z,16.80
2017-10-31T13:17:42.119Z,16.70
2017-10-31T13:20:08.475Z,17.40
2017-10-31T13:22:35.558Z,17.50
2017-10-31T13:25:01.954Z,17.40
2017-10-31T13:27:30.429Z,17.20
2017-10-31T13:29:58.144Z,17.40
2017-10-31T13:32:25.162Z,17.50
2017-10-31T13:34:52.104Z,18.00
2017-10-31T13:37:19.190Z,17.90
2017-10-31T13:39:46.970Z,18.10
2017-10-31T13:42:13.936Z,18.20
2017-10-31T13:44:41.243Z,17.70
2017-10-31T13:47:08.171Z,17.70
2017-10-31T13:49:34.690Z,17.40
2017-10-31T13:52:01.583Z,17.40
2017-10-31T13:54:27.914Z,17.70
2017-10-31T13:56:54.235Z,18.00
2017-10-31T13:59:20.566Z,18.20
2017-10-31T14:01:47.419Z,18.40
2017-10-31T14:04:14.394Z,17.90
2017-10-31T14:06:42.053Z,16.60
2017-10-31T14:09:09.550Z,16.90
2017-10-31T14:11:36.484Z,16.90
2017-10-31T14:14:02.851Z,17.60
2017-10-31T14:16:29.211Z,18.30
2017-10-31T14:18:56.639Z,19.30
2017-10-31T14:21:23.387Z,19.20
2017-10-31T14:23:49.761Z,19.40
2017-10-31T14:26:16.086Z,18.70
2017-10-31T14:28:42.403Z,18.40
2017-10-31T14:31:09.497Z,18.80
2017-10-31T14:33:36.870Z,18.80
2017-10-31T14:36:03.202Z,19.30
2017-10-31T14:38:29.576Z,19.60
2017-10-31T14:40:56.652Z,19.80
2017-10-31T14:43:23.007Z,19.80
2017-10-31T14:45:49.346Z,19.70
2017-10-31T14:48:15.707Z,19.60
2017-10-31T14:50:42.811Z,19.80
2017-10-31T14:53:09.151Z,19.70
2017-10-31T14:55:35.489Z,19.60
2017-10-31T14:58:01.804Z,19.60
2017-10-31T15:00:28.185Z,19.30
2017-10-31T15:02:55.251Z,18.90
2017-10-31T15:05:21.598Z,18.90
2017-10-31T15:07:47.930Z,18.60
2017-10-31T15:10:14.274Z,18.20
2017-10-31T15:12:40.645Z,18.20
2017-10-31T15:15:07.703Z,17.80
2017-10-31T15:17:34.030Z,17.80
2017-10-31T15:20:00.391Z,16.90
2017-10-31T15:22:27.737Z,16.10
2017-10-31T15:24:54.072Z,15.30
2017-10-31T15:27:21.436Z,14.40
2017-10-31T15:29:47.810Z,13.10
2017-10-31T15:32:14.135Z,12.20
2017-10-31T15:34:40.489Z,11.70
2017-10-31T15:37:07.571Z,11.20
2017-10-31T15:39:34.003Z,11.20
2017-10-31T15:42:00.336Z,11.10
2017-10-31T15:44:26.711Z,11.30
2017-10-31T15:46:53.043Z,11.10
2017-10-31T15:49:21.184Z,10.40
2017-10-31T15:51:47.558Z,10.30
2017-10-31T15:54:14.649Z,9.10
2017-10-31T15:56:40.994Z,9.10
2017-10-31T15:59:07.363Z,8.50
2017-10-31T16:01:34.462Z,7.90
2017-10-31T16:04:00.811Z,7.90
2017-10-31T16:06:27.151Z,7.70
2017-10-31T16:08:53.508Z,7.60
2017-10-31T16:11:20.603Z,7.10
2017-10-31T16:13:46.931Z,7.00
2017-10-31T16:16:14.019Z,6.80
2017-10-31T16:18:40.348Z,6.70
2017-10-31T16:21:06.703Z,6.70
2017-10-31T16:23:34.039Z,6.60
2017-10-31T16:26:01.127Z,6.00
2017-10-31T16:28:27.527Z,6.00
2017-10-31T16:30:55.605Z,5.50
2017-10-31T16:33:22.670Z,5.20
2017-10-31T16:35:49.021Z,5.20
2017-10-31T16:38:15.354Z,5.10
2017-10-31T16:40:41.698Z,5.00
2017-10-31T16:43:08.038Z,4.90
2017-10-31T16:45:34.373Z,4.80
2017-10-31T16:48:00.707Z,4.70
2017-10-31T16:50:27.078Z,4.60
2017-10-31T16:52:53.399Z,4.50
2017-10-31T16:55:19.765Z,4.30
2017-10-31T16:57:46.139Z,4.20
2017-10-31T17:00:13.262Z,4.10
2017-10-31T17:02:39.608Z,4.10
2017-10-31T17:05:05.943Z,4.10
2017-10-31T17:07:32.290Z,4.10
2017-10-31T17:09:59.390Z,4.00
2017-10-31T17:12:25.750Z,4.00
2017-10-31T17:14:52.110Z,4.00
2017-10-31T17:17:18.467Z,3.90
2017-10-31T17:19:44.846Z,3.90
2017-10-31T17:22:11.170Z,3.80
2017-10-31T17:24:37.511Z,3.70
2017-10-31T17:27:03.919Z,3.60
2017-10-31T17:29:30.238Z,3.40
2017-10-31T17:31:56.589Z,3.30
2017-10-31T17:34:22.934Z,3.40
2017-10-31T17:36:49.266Z,3.50
2017-10-31T17:39:16.356Z,3.60
2017-10-31T17:41:42.699Z,3.60
2017-10-31T17:44:09.042Z,3.60
2017-10-31T17:46:35.371Z,3.50
2017-10-31T17:49:01.743Z,3.60
2017-10-31T17:51:28.798Z,3.80
2017-10-31T17:53:56.906Z,3.90
2017-10-31T17:56:23.244Z,3.90
2017-10-31T17:58:49.591Z,3.90
2017-10-31T18:01:15.923Z,3.90
2017-10-31T18:03:42.266Z,3.90
2017-10-31T18:06:08.626Z,3.90
2017-10-31T18:08:36.701Z,3.80
2017-10-31T18:11:03.058Z,3.80
2017-10-31T18:13:29.429Z,3.80
2017-10-31T18:15:56.783Z,3.70
2017-10-31T18:18:23.165Z,3.70
2017-10-31T18:20:49.490Z,3.70
2017-10-31T18:23:15.842Z,3.50
2017-10-31T18:25:42.226Z,3.50
2017-10-31T18:28:09.329Z,3.50
2017-10-31T18:30:35.713Z,3.40
2017-10-31T18:33:02.062Z,3.40
2017-10-31T18:35:28.390Z,3.40
2017-10-31T18:37:54.719Z,3.40
2017-10-31T18:40:21.099Z,3.40
2017-10-31T18:42:47.417Z,3.40
2017-10-31T18:45:13.742Z,3.30
2017-10-31T18:47:40.224Z,3.30
2017-10-31T18:50:07.288Z,3.10
2017-10-31T18:52:33.618Z,3.10
2017-10-31T18:54:59.980Z,3.00
2017-10-31T18:57:26.319Z,2.90
2017-10-31T18:59:52.650Z,2.70
2017-10-31T19:02:18.990Z,2.60
2017-10-31T19:04:45.376Z,2.60
2017-10-31T19:07:11.732Z,2.50
2017-10-31T19:09:38.066Z,2.50
2017-10-31T19:12:04.383Z,2.40
2017-10-31T19:14:30.714Z,2.40
2017-10-31T19:16:57.062Z,2.30
2017-10-31T19:19:23.402Z,2.40
2017-10-31T19:21:49.744Z,2.40
2017-10-31T19:24:16.096Z,2.40
2017-10-31T19:26:42.467Z,2.30
2017-10-31T19:29:08.798Z,2.30
2017-10-31T19:31:35.135Z,2.40
2017-10-31T19:34:01.488Z,2.40
2017-10-31T19:36:27.834Z,2.40
2017-10-31T19:38:54.226Z,2.40
2017-10-31T19:41:20.586Z,2.60
2017-10-31T19:43:46.949Z,2.70
2017-10-31T19:46:14.047Z,2.80
2017-10-31T19:48:40.451Z,2.80
2017-10-31T19:51:06.811Z,2.90
2017-10-31T19:53:33.190Z,2.90
2017-10-31T19:56:00.251Z,3.10
2017-10-31T19:58:26.615Z,3.10
2017-10-31T20:00:52.948Z,3.20
2017-10-31T20:03:19.352Z,3.30
2017-10-31T20:05:45.666Z,3.30
2017-10-31T20:08:12.084Z,3.30
2017-10-31T20:10:39.175Z,3.30
2017-10-31T20:13:05.552Z,3.30
2017-10-31T20:15:31.910Z,3.30
2017-10-31T20:17:58.273Z,3.30
2017-10-31T20:20:24.618Z,3.30
2017-10-31T20:22:50.935Z,3.30
2017-10-31T20:25:17.327Z,3.30
2017-10-31T20:27:43.661Z,3.20
2017-10-31T20:30:09.998Z,3.30
2017-10-31T20:32:36.352Z,3.30
2017-10-31T20:35:02.690Z,3.10
2017-10-31T20:39:57.234Z,3.10
2017-10-31T20:42:24.334Z,3.30
2017-10-31T20:44:50.667Z,3.30
2017-10-31T20:47:17.006Z,3.40
2017-10-31T20:49:43.355Z,3.40
2017-10-31T20:52:10.762Z,3.20
2017-10-31T20:54:37.190Z,3.30
2017-10-31T20:57:03.479Z,3.30
2017-10-31T20:59:29.796Z,3.20
2017-10-31T21:01:56.146Z,3.30
2017-10-31T21:04:22.470Z,3.30
2017-10-31T21:06:48.815Z,3.40
2017-10-31T21:09:15.891Z,3.40
2017-10-31T21:11:42.234Z,3.30
2017-10-31T21:14:08.560Z,3.40
2017-10-31T21:16:34.918Z,3.40
2017-10-31T21:19:01.250Z,3.40
2017-10-31T21:21:27.594Z,3.40
2017-10-31T21:23:53.955Z,3.40
2017-10-31T21:26:21.019Z,3.40
2017-10-31T21:28:47.343Z,3.40
2017-10-31T21:31:13.698Z,3.40
2017-10-31T21:33:40.026Z,3.40
2017-10-31T21:36:06.358Z,3.40
2017-10-31T21:38:32.758Z,3.40
2017-10-31T21:40:59.079Z,3.40
2017-10-31T21:43:26.170Z,3.40
2017-10-31T21:45:52.505Z,3.30
2017-10-31T21:48:18.876Z,3.40
2017-10-31T21:50:45.191Z,3.40
2017-10-31T21:53:11.543Z,3.40
2017-10-31T21:55:38.629Z,3.30
2017-10-31T21:58:04.940Z,3.20
2017-10-31T22:00:31.298Z,3.20
2017-10-31T22:02:57.639Z,3.10
2017-10-31T22:05:24.015Z,3.10
2017-10-31T22:07:51.122Z,3.00
2017-10-31T22:10:17.474Z,2.90
2017-10-31T22:12:43.818Z,2.90
2017-10-31T22:15:11.935Z,2.80
2017-10-31T22:17:38.258Z,2.80
2017-10-31T22:20:04.605Z,2.60
2017-10-31T22:22:30.954Z,2.60
2017-10-31T22:24:57.314Z,2.60
2017-10-31T22:27:24.395Z,2.60
2017-10-31T22:29:51.748Z,2.60
2017-10-31T22:32:18.076Z,2.70
2017-10-31T22:34:44.428Z,2.70
2017-10-31T22:37:10.758Z,2.70
2017-10-31T22:39:37.096Z,2.70
2017-10-31T22:42:03.442Z,2.60
2017-10-31T22:44:29.750Z,2.60
2017-10-31T22:46:56.076Z,2.50
2017-10-31T22:49:22.427Z,2.40
2017-10-31T22:51:48.753Z,2.50
2017-10-31T22:54:15.136Z,2.40
2017-10-31T22:56:41.502Z,2.30
2017-10-31T22:59:07.853Z,2.30
2017-10-31T23:01:34.209Z,2.30
2017-10-31T23:04:01.314Z,2.40
2017-10-31T23:06:27.696Z,2.30
2017-10-31T23:08:54.798Z,2.20
2017-10-31T23:11:21.131Z,2.20
2017-10-31T23:13:47.478Z,2.30
2017-10-31T23:16:13.803Z,2.40
2017-10-31T23:18:40.301Z,2.40
2017-10-31T23:21:06.643Z,2.40
2017-10-31T23:23:33.047Z,2.40
2017-10-31T23:25:59.370Z,2.40
2017-10-31T23:28:26.455Z,2.50
2017-10-31T23:30:52.782Z,2.50
2017-10-31T23:33:19.114Z,2.50
2017-10-31T23:35:45.441Z,2.50
2017-10-31T23:38:12.773Z,2.50
2017-10-31T23:40:40.222Z,2.60
2017-10-31T23:43:06.561Z,2.60
2017-10-31T23:45:32.889Z,2.60
2017-10-31T23:47:59.231Z,2.60
2017-10-31T23:50:25.581Z,2.60
2017-10-31T23:52:52.918Z,2.60
2017-10-31T23:55:19.277Z,2.60
2017-10-31T23:57:45.649Z,2.60
